Time;durP1;ratioP1;P1;durP2;ratioP2;P2;SDS_P1;SDS_P2;PMS_P1;PMS_P2;Temp;Humidity;BMP_temperature;BMP_pressure;BME280_temperature;BME280_humidity;BME280_pressure;Samples;Min_cycle;Max_cycle;Signal;HPM_P1;HPM_P2
2022/01/16 00:04:27;;;;;;;4.92;1.45;;;;;;;1.72;65.50;142694.17;1649891;85;21097;-62
2022/01/16 00:06:55;;;;;;;7.03;1.70;;;;;;;1.71;65.36;142691.70;1632372;87;21110;-63
2022/01/16 00:09:23;;;;;;;4.45;1.60;;;;;;;1.68;65.48;142682.97;1632399;87;21098;-63
2022/01/16 00:11:55;;;;;;;4.90;1.47;;;;;;;1.65;65.66;142675.50;1632354;87;21054;-62
2022/01/16 00:14:20;;;;;;;3.70;1.42;;;;;;;1.66;65.78;142679.25;1631878;87;21071;-62
2022/01/16 00:16:47;;;;;;;6.42;2.45;;;;;;;1.68;65.63;142682.97;1630995;87;21063;-62
2022/01/16 00:19:13;;;;;;;6.03;2.00;;;;;;;1.69;65.70;142686.72;1630928;87;21102;-62
2022/01/16 00:21:41;;;;;;;5.83;1.80;;;;;;;1.70;65.49;142687.95;1631234;87;21086;-62
2022/01/16 00:24:10;;;;;;;5.12;1.98;;;;;;;1.74;65.43;142697.92;1631390;87;21537;-62
2022/01/16 00:26:37;;;;;;;5.65;1.95;;;;;;;1.68;65.12;142682.97;1630362;88;21536;-62
2022/01/16 00:29:09;;;;;;;5.33;1.52;;;;;;;1.63;64.82;142670.52;1631028;87;21050;-62
2022/01/16 00:31:39;;;;;;;4.97;1.57;;;;;;;1.63;64.89;142670.52;1631282;88;21513;-62
2022/01/16 00:34:08;;;;;;;5.37;1.45;;;;;;;1.64;64.78;142673.03;1631255;87;21557;-66
2022/01/16 00:36:35;;;;;;;5.58;1.40;;;;;;;1.65;64.38;142676.73;1632317;87;21544;-65
2022/01/16 00:39:04;;;;;;;6.40;2.30;;;;;;;1.64;64.48;142674.27;1632537;87;21595;-63
2022/01/16 00:41:32;;;;;;;6.75;2.05;;;;;;;1.67;64.42;142680.48;1632517;88;21069;-63
2022/01/16 00:43:59;;;;;;;4.33;1.92;;;;;;;1.70;64.13;142687.95;1631713;87;21106;-67
2022/01/16 00:46:25;;;;;;;6.90;2.70;;;;;;;1.71;64.11;142690.47;1631120;87;21103;-66
2022/01/16 00:48:52;;;;;;;7.03;2.12;;;;;;;1.71;64.15;142690.47;1630989;87;21625;-63
2022/01/16 00:51:18;;;;;;;5.40;1.50;;;;;;;1.73;64.27;142695.41;1632492;86;21617;-64
2022/01/16 00:53:45;;;;;;;5.58;1.90;;;;;;;1.67;63.85;142680.48;1633702;86;21058;-63
2022/01/16 00:56:13;;;;;;;6.15;2.37;;;;;;;1.65;63.64;142675.50;1634946;86;21066;-63
2022/01/16 00:58:41;;;;;;;4.65;1.70;;;;;;;1.66;63.55;142679.25;1634698;86;21058;-64
2022/01/16 01:01:08;;;;;;;6.90;1.60;;;;;;;1.69;63.71;142685.47;1634948;86;21066;-64
2022/01/16 01:03:36;;;;;;;4.78;2.00;;;;;;;1.63;63.84;142671.80;1634570;86;21074;-65
2022/01/16 01:06:03;;;;;;;3.65;1.50;;;;;;;1.61;63.92;142665.58;1633608;86;21011;-64
2022/01/16 01:08:31;;;;;;;3.87;1.70;;;;;;;1.58;63.98;142659.34;1633244;86;21026;-63
2022/01/16 01:10:58;;;;;;;3.77;1.32;;;;;;;1.57;64.31;142655.59;1633422;87;21573;-64
2022/01/16 01:16:16;;;;;;;4.30;1.37;;;;;;;1.54;64.39;142648.14;1634881;86;21050;-65
2022/01/16 01:18:44;;;;;;;4.60;1.80;;;;;;;1.57;64.62;142655.59;1637112;87;21056;-63
2022/01/16 01:21:29;;;;;;;6.45;1.47;;;;;;;1.60;64.15;142663.06;1636628;87;21028;-65
2022/01/16 01:23:57;;;;;;;4.08;1.50;;;;;;;1.54;64.11;142648.14;1610319;89;21072;-65
2022/01/16 01:26:30;;;;;;;3.77;1.40;;;;;;;1.52;64.35;142645.63;1610850;89;21584;-64
2022/01/16 01:28:53;;;;;;;5.50;1.77;;;;;;;1.56;64.35;142654.36;1610465;89;21530;-65
2022/01/16 01:31:21;;;;;;;3.92;1.52;;;;;;;1.63;64.24;142670.52;1610646;89;21080;-64
2022/01/16 01:33:50;;;;;;;5.05;1.37;;;;;;;1.63;64.11;142671.80;1634892;87;21086;-64
2022/01/16 01:36:17;;;;;;;3.77;1.50;;;;;;;1.59;64.27;142661.81;1636686;86;21075;-64
2022/01/16 01:38:44;;;;;;;5.15;1.45;;;;;;;1.57;64.44;142655.59;1636928;86;21071;-63
2022/01/16 01:41:10;;;;;;;4.70;1.65;;;;;;;1.60;64.52;142663.06;1636582;88;21080;-64
2022/01/16 01:51:44;;;;;;;4.22;1.50;;;;;;;1.52;64.97;142645.63;1636745;86;21119;-66
2022/01/16 01:54:13;;;;;;;4.78;1.55;;;;;;;1.51;65.12;142643.16;1636955;86;21043;-65
2022/01/16 01:56:40;;;;;;;2.77;1.32;;;;;;;1.52;65.25;142644.39;1636685;86;21185;-64
2022/01/16 01:59:07;;;;;;;4.28;1.22;;;;;;;1.50;65.25;142640.69;1636567;86;21115;-65
2022/01/16 02:01:34;;;;;;;4.92;1.62;;;;;;;1.47;65.44;142633.17;1636900;87;21067;-64
2022/01/16 02:04:00;;;;;;;4.22;1.65;;;;;;;1.48;65.60;142635.69;1636906;86;21110;-65
2022/01/16 02:06:30;;;;;;;5.95;1.70;;;;;;;1.47;65.63;142633.17;1636871;86;21135;-65
2022/01/16 02:09:03;;;;;;;4.87;1.80;;;;;;;1.49;65.78;142638.16;1636868;86;21091;-65
2022/01/16 02:11:32;;;;;;;4.72;1.52;;;;;;;1.46;65.85;142630.70;1636904;88;21100;-65
2022/01/16 02:14:10;;;;;;;6.15;2.05;;;;;;;1.46;66.06;142630.70;1635627;87;21087;-65
2022/01/16 02:28:24;;;;;;;4.55;2.05;;;;;;;1.36;67.36;142605.81;1628810;87;21052;-65
2022/01/16 02:31:02;;;;;;;4.97;1.87;;;;;;;1.27;67.41;142584.69;1581880;90;21529;-64
2022/01/16 02:35:56;;;;;;;3.90;1.60;;;;;;;1.20;67.57;142567.25;1629311;87;20137;-64
2022/01/16 02:38:22;;;;;;;4.78;1.30;;;;;;;1.15;66.88;142553.58;1628845;87;21056;-64
2022/01/16 02:40:58;;;;;;;4.60;1.80;;;;;;;1.15;66.52;142554.81;1628905;88;21093;-64
2022/01/16 02:43:29;;;;;;;4.53;1.85;;;;;;;1.18;66.54;142561.03;1581951;91;21051;-64
2022/01/16 02:46:08;;;;;;;3.98;1.62;;;;;;;1.18;66.52;142561.03;1628312;87;21081;-63
2022/01/16 02:48:19;;;;;;;9.50;1.70;;;;;;;1.22;66.36;142570.95;1627192;88;21068;-63
2022/01/16 02:50:45;;;;;;;3.33;1.55;;;;;;;1.25;66.34;142578.47;1628919;87;21151;-64
2022/01/16 02:53:12;;;;;;;4.90;1.60;;;;;;;1.23;66.41;142573.47;1628852;87;21064;-63
2022/01/16 02:55:43;;;;;;;3.92;1.85;;;;;;;1.27;66.44;142584.69;1628810;87;21037;-63
2022/01/16 02:58:10;;;;;;;5.40;1.65;;;;;;;1.32;66.38;142594.61;1628797;87;21064;-64
2022/01/16 03:00:37;;;;;;;7.50;1.98;;;;;;;1.33;66.50;142597.13;1628965;88;21064;-64
2022/01/16 03:03:03;;;;;;;5.58;1.80;;;;;;;1.33;66.66;142598.36;1628942;88;21566;-64
2022/01/16 03:05:33;;;;;;;4.15;1.50;;;;;;;1.34;66.71;142600.83;1582060;89;21044;-63
2022/01/16 03:07:59;;;;;;;4.80;2.27;;;;;;;1.34;66.80;142600.83;1628959;88;21081;-63
2022/01/16 03:12:58;;;;;;;4.37;1.82;;;;;;;1.33;67.27;142598.36;1629175;87;21013;-63
2022/01/16 03:15:26;;;;;;;4.50;1.55;;;;;;;1.33;67.57;142598.36;1628940;87;21049;-62
2022/01/16 03:21:53;;;;;;;7.90;1.72;;;;;;;1.31;68.01;142593.38;1617829;86;21125;-63
2022/01/16 03:23:08;;;;;;;5.28;1.80;;;;;;;1.23;68.78;142574.70;1606042;88;21114;-65
2022/01/16 03:25:35;;;;;;;4.00;1.77;;;;;;;1.26;69.08;142580.92;1606360;88;21036;-64
2022/01/16 03:28:02;;;;;;;7.62;2.12;;;;;;;1.28;69.41;142585.91;1602380;88;21063;-64
2022/01/16 03:30:29;;;;;;;5.87;2.20;;;;;;;1.24;69.59;142577.19;1602159;89;21035;-63
2022/01/16 03:32:55;;;;;;;4.90;2.17;;;;;;;1.29;69.86;142588.39;1601950;89;21075;-64
2022/01/16 03:35:22;;;;;;;6.80;2.10;;;;;;;1.30;69.92;142590.91;1601988;88;21239;-65
2022/01/16 03:37:49;;;;;;;7.65;2.42;;;;;;;1.29;70.22;142588.39;1604573;89;21097;-64
2022/01/16 03:40:17;;;;;;;5.58;1.98;;;;;;;1.25;70.35;142579.69;1606075;88;21112;-63
2022/01/16 03:42:44;;;;;;;6.90;2.12;;;;;;;1.23;70.48;142573.47;1606238;89;21061;-63
2022/01/16 03:45:12;;;;;;;8.98;2.22;;;;;;;1.20;70.67;142566.02;1606046;88;21064;-64
2022/01/16 03:47:38;;;;;;;8.15;2.15;;;;;;;1.21;70.68;142568.48;1604314;88;21592;-64
2022/01/16 03:50:07;;;;;;;5.35;2.12;;;;;;;1.24;70.70;142577.19;1601985;89;21023;-64
2022/01/16 03:52:34;;;;;;;5.17;1.80;;;;;;;1.24;70.83;142575.94;1602059;88;21117;-63
2022/01/16 03:55:02;;;;;;;4.50;1.92;;;;;;;1.24;70.95;142575.94;1602032;90;21054;-65
2022/01/16 03:57:30;;;;;;;5.87;2.17;;;;;;;1.23;71.03;142573.47;1601758;89;21077;-64
2022/01/16 03:59:56;;;;;;;6.00;2.20;;;;;;;1.24;71.15;142577.19;1601931;89;21070;-63
2022/01/16 04:02:23;;;;;;;4.80;2.25;;;;;;;1.20;71.22;142567.25;1605740;88;21571;-65
2022/01/16 04:04:50;;;;;;;5.50;2.12;;;;;;;1.21;71.31;142569.72;1606298;88;21021;-64
2022/01/16 04:07:24;;;;;;;4.62;1.90;;;;;;;1.19;70.97;142564.73;1604769;88;21051;-65
2022/01/16 04:09:45;;;;;;;5.72;2.10;;;;;;;1.16;71.31;142557.28;1601261;89;21107;-67
2022/01/16 04:12:11;;;;;;;4.33;1.90;;;;;;;1.13;70.86;142549.81;1601836;90;21059;-66
2022/01/16 04:17:18;;;;;;;3.67;1.47;;;;;;;1.04;70.72;142528.69;1604670;87;21557;-66
2022/01/16 04:19:46;;;;;;;5.05;1.72;;;;;;;1.01;70.66;142521.19;1642132;86;21020;-66
2022/01/16 04:22:14;;;;;;;6.15;2.02;;;;;;;1.04;70.66;142528.69;1641927;86;21111;-66
2022/01/16 04:24:42;;;;;;;5.12;1.90;;;;;;;1.03;70.55;142526.17;1642088;86;21088;-66
2022/01/16 04:27:11;;;;;;;4.50;1.85;;;;;;;1.05;70.53;142531.16;1641871;87;21075;-66
2022/01/16 04:29:44;;;;;;;5.87;2.05;;;;;;;1.07;70.52;142536.16;1641780;87;21127;-67
2022/01/16 04:32:12;;;;;;;8.33;2.08;;;;;;;1.10;70.49;142542.38;1642120;86;21036;-67
2022/01/16 04:34:40;;;;;;;5.87;1.77;;;;;;;1.12;70.48;142547.36;1641857;86;21024;-66
2022/01/16 04:37:07;;;;;;;5.58;2.05;;;;;;;1.11;70.19;142544.84;1642062;86;21065;-66
2022/01/16 04:39:36;;;;;;;5.90;1.90;;;;;;;1.03;70.24;142524.94;1642031;86;21099;-67
2022/01/16 04:44:52;;;;;;;7.42;2.33;;;;;;;1.10;70.39;142541.12;1642167;86;21027;-66
2022/01/16 04:47:19;;;;;;;5.60;2.52;;;;;;;1.16;70.18;142557.28;1642124;86;21024;-66
2022/01/16 04:49:45;;;;;;;3.72;2.00;;;;;;;1.14;69.98;142551.06;1641734;86;21573;-66
2022/01/16 04:52:12;;;;;;;5.03;1.80;;;;;;;1.12;70.00;142546.08;1641984;87;21044;-66
2022/01/16 04:54:38;;;;;;;5.17;2.20;;;;;;;1.10;69.90;142541.12;1641966;86;21052;-66
2022/01/16 04:57:05;;;;;;;5.40;2.40;;;;;;;1.05;70.03;142531.16;1641862;86;21051;-66
2022/01/16 04:59:32;;;;;;;5.12;2.27;;;;;;;1.07;70.00;142536.16;1641893;86;21032;-65
2022/01/16 05:01:59;;;;;;;8.45;2.30;;;;;;;1.02;69.75;142523.70;1642011;86;21169;-66
2022/01/16 05:04:25;;;;;;;6.42;2.05;;;;;;;1.02;69.76;142523.70;1642116;86;21602;-65
2022/01/16 05:06:51;;;;;;;6.05;2.22;;;;;;;0.98;69.68;142513.73;1642087;86;21048;-64
2022/01/16 05:09:18;;;;;;;7.30;1.70;;;;;;;0.96;69.74;142508.75;1641845;86;21094;-65
2022/01/16 05:11:45;;;;;;;5.08;1.87;;;;;;;0.94;69.41;142503.81;1641792;86;21103;-63
2022/01/16 05:16:57;;;;;;;10.28;1.95;;;;;;;0.85;69.15;142481.41;1642037;86;21083;-63
2022/01/16 05:19:23;;;;;;;9.23;1.80;;;;;;;0.85;68.98;142482.64;1628831;86;21064;-63
2022/01/16 05:21:50;;;;;;;7.67;2.62;;;;;;;0.87;68.85;142486.39;1611378;89;21074;-63
2022/01/16 05:24:16;;;;;;;5.47;1.50;;;;;;;0.95;68.79;142505.05;1572409;90;21040;-66
2022/01/16 05:26:44;;;;;;;4.33;1.92;;;;;;;0.98;67.98;142513.73;1572085;91;21094;-65
2022/01/16 05:29:13;;;;;;;6.05;2.08;;;;;;;0.96;67.83;142508.75;1572572;91;21087;-65
2022/01/16 05:31:48;;;;;;;6.70;2.10;;;;;;;0.91;67.12;142496.31;1563484;91;21116;-65
2022/01/16 05:34:13;;;;;;;;;;;;;;;0.88;66.99;142487.63;1555016;91;21058;-65
2022/01/16 05:36:39;;;;;;;4.15;1.82;;;;;;;0.86;66.40;142483.88;1591326;89;20181;-64
2022/01/16 05:39:06;;;;;;;7.00;2.27;;;;;;;0.85;66.30;142482.64;1583495;89;21651;-64
2022/01/16 05:41:33;;;;;;;5.72;1.98;;;;;;;0.86;66.06;142483.88;1565445;91;21160;-64
2022/01/16 05:43:59;;;;;;;4.45;2.00;;;;;;;0.85;65.86;142481.41;1565714;91;21084;-66
2022/01/16 05:46:25;;;;;;;4.72;1.85;;;;;;;0.82;65.48;142473.95;1565409;91;21053;-63
2022/01/16 05:48:52;;;;;;;11.35;2.62;;;;;;;0.79;65.49;142467.73;1565302;91;21129;-63
2022/01/16 05:51:18;;;;;;;4.83;1.90;;;;;;;0.81;65.60;142471.44;1565476;91;21104;-64
2022/01/16 05:53:45;;;;;;;4.87;2.58;;;;;;;0.82;65.51;142473.95;1565613;91;21065;-63
2022/01/16 05:56:13;;;;;;;9.15;2.02;;;;;;;0.79;65.76;142466.45;1565437;91;21100;-63
2022/01/16 05:58:41;;;;;;;5.65;1.92;;;;;;;0.76;65.84;142460.23;1565465;91;21111;-65
2022/01/16 06:01:08;;;;;;;8.38;2.75;;;;;;;0.76;66.03;142459.00;1571848;91;21111;-65
2022/01/16 06:03:35;;;;;;;4.42;1.87;;;;;;;0.79;66.22;142467.73;1572199;91;21068;-66
2022/01/16 06:06:03;;;;;;;6.37;1.80;;;;;;;0.79;66.07;142467.73;1572105;91;21598;-66
2022/01/16 06:08:29;;;;;;;4.30;1.87;;;;;;;0.79;66.06;142466.45;1572193;91;21092;-66
2022/01/16 06:10:56;;;;;;;8.78;3.20;;;;;;;0.80;66.25;142468.97;1562214;91;21076;-66
2022/01/16 06:13:24;;;;;;;5.28;2.72;;;;;;;0.82;66.31;142473.95;1561630;91;21602;-63
2022/01/16 06:15:50;;;;;;;5.58;2.20;;;;;;;0.85;66.24;142482.64;1562409;91;21052;-63
2022/01/16 06:18:17;;;;;;;6.75;2.37;;;;;;;0.83;66.42;142476.42;1560561;89;21064;-63
2022/01/16 06:20:43;;;;;;;6.08;2.08;;;;;;;0.85;66.39;142481.41;1567550;90;21091;-63
2022/01/16 06:23:11;;;;;;;7.08;2.17;;;;;;;0.83;66.50;142477.66;1593507;89;21123;-63
2022/01/16 06:25:38;;;;;;;8.58;2.83;;;;;;;0.82;66.55;142473.95;1590647;90;21082;-63
2022/01/16 06:28:04;;;;;;;6.97;2.25;;;;;;;0.83;66.59;142476.42;1545681;93;21064;-63
2022/01/16 06:30:30;;;;;;;7.03;2.35;;;;;;;0.79;66.74;142466.45;1521624;94;21084;-62
2022/01/16 06:32:57;;;;;;;5.92;2.40;;;;;;;0.78;66.83;142463.97;1576868;90;21118;-63
2022/01/16 06:35:23;;;;;;;8.10;2.72;;;;;;;0.78;66.72;142465.22;1576878;91;21098;-63
2022/01/16 06:37:50;;;;;;;8.00;2.33;;;;;;;0.79;66.57;142466.45;1591634;89;21590;-65
2022/01/16 06:40:16;;;;;;;6.03;2.33;;;;;;;0.76;66.47;142459.00;1593883;89;21143;-65
2022/01/16 06:42:43;;;;;;;7.20;2.40;;;;;;;0.76;66.35;142460.23;1593832;89;21138;-65
2022/01/16 06:45:11;;;;;;;9.78;2.30;;;;;;;0.80;66.11;142468.97;1585220;89;21491;-64
2022/01/16 06:47:38;;;;;;;4.97;2.17;;;;;;;0.78;65.69;142463.97;1551834;92;21132;-64
2022/01/16 06:50:08;;;;;;;9.95;2.00;;;;;;;0.77;65.35;142462.75;1551822;92;21578;-65
2022/01/16 06:52:35;;;;;;;6.53;2.52;;;;;;;0.76;64.75;142460.23;1549212;91;21077;-63
2022/01/16 06:55:02;;;;;;;5.03;2.30;;;;;;;0.77;64.58;142461.52;1548394;92;21498;-63
2022/01/16 06:57:29;;;;;;;7.58;2.05;;;;;;;0.80;64.29;142470.19;1547668;92;21145;-63
2022/01/16 06:59:55;;;;;;;8.53;2.52;;;;;;;0.79;63.06;142467.73;1545271;92;21096;-65
2022/01/16 07:02:22;;;;;;;6.28;2.42;;;;;;;0.74;62.88;142455.30;1548098;92;21081;-64
2022/01/16 07:04:49;;;;;;;5.62;2.45;;;;;;;0.72;62.30;142449.08;1549763;92;21076;-64
2022/01/16 07:07:15;;;;;;;4.42;2.02;;;;;;;0.77;62.45;142462.75;1551576;92;21199;-63
2022/01/16 07:09:42;;;;;;;7.95;3.08;;;;;;;0.82;61.82;142475.19;1551794;92;21114;-63
2022/01/16 07:12:12;;;;;;;11.33;7.12;;;;;;;0.82;61.62;142473.95;1551678;92;21088;-63
2022/01/16 07:14:38;;;;;;;6.92;2.60;;;;;;;0.85;61.43;142481.41;1555445;92;21064;-63
2022/01/16 07:17:05;;;;;;;6.33;3.00;;;;;;;0.92;61.32;142498.83;1625678;88;21504;-63
2022/01/16 07:19:31;;;;;;;7.78;3.47;;;;;;;0.94;61.43;142502.53;1610838;87;21068;-63
2022/01/16 07:21:58;;;;;;;4.50;2.08;;;;;;;0.97;61.39;142510.03;1619448;88;21716;-63
2022/01/16 07:24:25;;;;;;;10.05;4.22;;;;;;;0.96;61.52;142507.52;1616512;88;21049;-63
2022/01/16 07:26:51;;;;;;;9.85;3.35;;;;;;;0.97;61.54;142511.27;1615650;88;21064;-63
2022/01/16 07:29:18;;;;;;;5.22;2.52;;;;;;;1.01;61.58;142519.95;1615379;88;21155;-63
2022/01/16 07:31:44;;;;;;;6.50;2.02;;;;;;;1.03;61.77;142524.94;1619906;86;21016;-63
2022/01/16 07:34:11;;;;;;;6.92;1.57;;;;;;;1.02;61.97;142523.70;1618314;88;21092;-63
2022/01/16 07:36:39;;;;;;;5.22;1.82;;;;;;;1.03;62.09;142524.94;1615585;88;21530;-63
2022/01/16 07:39:06;;;;;;;5.20;2.00;;;;;;;1.00;62.18;142518.72;1584050;90;21522;-63
2022/01/16 07:41:33;;;;;;;6.80;2.15;;;;;;;1.00;62.47;142518.72;1579879;89;21056;-63
2022/01/16 07:43:59;;;;;;;5.03;1.98;;;;;;;1.01;62.66;142521.19;1616940;88;21024;-63
2022/01/16 07:46:27;;;;;;;6.60;2.08;;;;;;;1.01;62.83;142521.19;1623447;87;21542;-63
2022/01/16 07:48:54;;;;;;;10.32;3.42;;;;;;;0.98;63.14;142512.50;1610444;88;21132;-62
2022/01/16 07:51:21;;;;;;;9.45;2.80;;;;;;;0.93;63.54;142501.30;1608157;88;21056;-63
2022/01/16 07:53:48;;;;;;;6.78;2.65;;;;;;;0.94;63.92;142502.53;1619499;88;21119;-62
2022/01/16 07:56:14;;;;;;;9.05;2.80;;;;;;;0.94;64.12;142503.81;1619088;88;21582;-63
2022/01/16 07:58:42;;;;;;;7.47;3.20;;;;;;;0.92;64.19;142498.83;1619253;87;21032;-63
2022/01/16 08:01:08;;;;;;;5.25;2.55;;;;;;;0.91;64.31;142495.08;1622518;87;21132;-63
2022/01/16 08:03:35;;;;;;;6.62;2.70;;;;;;;0.96;64.15;142508.75;1619645;86;21055;-63
2022/01/16 08:06:02;;;;;;;5.30;2.55;;;;;;;0.94;63.72;142503.81;1630517;88;21067;-63
2022/01/16 08:08:29;;;;;;;6.22;2.27;;;;;;;1.01;63.72;142521.19;1631077;88;21550;-63
2022/01/16 08:10:55;;;;;;;10.98;2.83;;;;;;;1.11;63.51;142543.59;1631347;88;21017;-63
2022/01/16 08:13:23;;;;;;;5.62;2.27;;;;;;;1.15;62.97;142554.81;1631143;88;21060;-63
2022/01/16 08:15:49;;;;;;;6.05;2.50;;;;;;;1.19;63.01;142563.50;1631516;86;21037;-63
2022/01/16 08:18:16;;;;;;;6.47;2.37;;;;;;;1.24;63.23;142575.94;1628658;88;21068;-63
2022/01/16 08:20:43;;;;;;;7.08;2.67;;;;;;;1.36;63.02;142605.81;1631036;87;21064;-63
2022/01/16 08:23:10;;;;;;;5.35;2.25;;;;;;;1.47;62.69;142633.17;1630787;88;21056;-62
2022/01/16 08:25:37;;;;;;;6.53;2.80;;;;;;;1.46;62.45;142629.47;1615431;88;21550;-62
2022/01/16 08:28:05;;;;;;;6.15;2.40;;;;;;;1.42;62.64;142620.73;1608901;87;21100;-61
2022/01/16 08:30:32;;;;;;;7.28;2.20;;;;;;;1.42;62.69;142620.73;1619399;88;21048;-62
2022/01/16 08:32:58;;;;;;;7.33;3.27;;;;;;;1.38;62.83;142610.80;1617611;88;21529;-62
2022/01/16 08:35:28;;;;;;;7.67;2.72;;;;;;;1.35;62.40;142602.06;1616873;88;21084;-62
2022/01/16 08:37:54;;;;;;;8.60;2.80;;;;;;;1.34;62.38;142600.83;1619922;88;21084;-62
2022/01/16 08:40:21;;;;;;;9.28;2.58;;;;;;;1.35;62.14;142603.34;1604857;88;21583;-63
2022/01/16 08:42:47;;;;;;;5.60;2.60;;;;;;;1.33;61.99;142597.13;1595745;90;21036;-62
2022/01/16 08:45:14;;;;;;;5.97;2.25;;;;;;;1.26;61.81;142582.16;1595507;90;21075;-61
2022/01/16 08:47:40;;;;;;;5.62;2.17;;;;;;;1.33;61.82;142598.36;1595653;90;21563;-63
2022/01/16 08:50:09;;;;;;;8.58;2.10;;;;;;;1.38;61.93;142610.80;1613381;88;21069;-62
2022/01/16 08:52:36;;;;;;;5.00;2.05;;;;;;;1.39;61.33;142613.28;1631361;86;21041;-62
2022/01/16 08:55:04;;;;;;;6.00;2.40;;;;;;;1.32;61.01;142594.61;1631244;87;21164;-62
2022/01/16 08:57:37;;;;;;;4.67;2.12;;;;;;;1.36;61.05;142604.58;1631103;88;21092;-61
2022/01/16 09:00:06;;;;;;;5.87;2.10;;;;;;;1.35;60.54;142603.34;1589815;89;21052;-63
2022/01/16 09:02:33;;;;;;;6.28;2.12;;;;;;;1.38;60.59;142610.80;1595144;90;21247;-63
2022/01/16 09:04:59;;;;;;;4.33;2.27;;;;;;;1.40;60.37;142614.50;1594205;90;21112;-61
2022/01/16 09:07:26;;;;;;;7.55;2.22;;;;;;;1.40;60.38;142615.80;1595417;88;21562;-62
2022/01/16 09:09:52;;;;;;;5.55;2.27;;;;;;;1.42;60.16;142620.73;1592705;90;21065;-63
2022/01/16 09:12:20;;;;;;;5.55;1.92;;;;;;;1.39;60.25;142613.28;1578313;90;21059;-62
2022/01/16 09:14:47;;;;;;;7.10;2.40;;;;;;;1.38;60.40;142610.80;1571962;91;21060;-62
2022/01/16 09:17:13;;;;;;;6.87;2.10;;;;;;;1.37;60.29;142608.28;1573706;90;21550;-63
2022/01/16 09:19:42;;;;;;;6.42;1.90;;;;;;;1.39;60.25;142612.03;1576695;91;21083;-62
2022/01/16 09:22:10;;;;;;;6.58;2.27;;;;;;;1.37;60.23;142607.05;1584771;89;21063;-62
2022/01/16 09:24:36;;;;;;;4.10;2.08;;;;;;;1.32;60.42;142595.84;1581678;90;21550;-62
2022/01/16 09:27:04;;;;;;;5.22;2.33;;;;;;;1.34;60.68;142599.59;1608162;88;21056;-63
2022/01/16 09:29:31;;;;;;;9.73;2.90;;;;;;;1.35;60.81;142603.34;1606329;88;21060;-63
2022/01/16 09:31:58;;;;;;;8.48;2.80;;;;;;;1.31;61.13;142593.38;1607970;88;21079;-63
2022/01/16 09:34:24;;;;;;;8.93;3.02;;;;;;;1.28;61.56;142585.91;1608059;88;21043;-63
2022/01/16 09:36:53;;;;;;;7.17;2.50;;;;;;;1.38;61.98;142610.80;1608299;88;21565;-63
2022/01/16 09:39:19;;;;;;;5.62;2.55;;;;;;;1.45;62.27;142626.95;1606168;89;21032;-62
2022/01/16 09:41:46;;;;;;;8.18;2.20;;;;;;;1.37;62.53;142607.05;1608172;88;21079;-62
2022/01/16 09:44:13;;;;;;;6.53;2.37;;;;;;;1.35;62.88;142602.06;1608184;89;21538;-62
2022/01/16 09:46:40;;;;;;;7.67;2.75;;;;;;;1.37;62.59;142608.28;1613333;88;21574;-62
2022/01/16 09:49:07;;;;;;;7.00;2.27;;;;;;;1.40;62.80;142615.80;1592783;89;21052;-61
2022/01/16 09:51:34;;;;;;;6.33;2.22;;;;;;;1.28;62.72;142585.91;1581770;90;21549;-62
2022/01/16 09:54:01;;;;;;;9.20;2.45;;;;;;;1.28;63.02;142585.91;1581509;90;21060;-63
2022/01/16 09:56:28;;;;;;;8.35;2.83;;;;;;;1.23;63.17;142574.70;1581727;90;21083;-64
2022/01/16 09:58:54;;;;;;;4.97;2.47;;;;;;;1.24;63.21;142575.94;1581425;91;21108;-63
2022/01/16 10:01:21;;;;;;;7.33;2.40;;;;;;;1.26;63.28;142580.92;1607931;88;21064;-63
2022/01/16 10:03:48;;;;;;;10.23;2.77;;;;;;;1.22;63.14;142570.95;1608139;88;21060;-63
2022/01/16 10:06:21;;;;;;;6.78;2.60;;;;;;;1.18;63.26;142561.03;1608139;88;21068;-63
2022/01/16 10:08:51;;;;;;;9.58;2.35;;;;;;;1.24;63.09;142575.94;1593301;88;21110;-63
2022/01/16 10:11:40;;;;;;;5.67;2.17;;;;;;;1.20;62.59;142567.25;1581724;90;21922;-63
2022/01/16 10:14:14;;;;;;;7.90;3.22;;;;;;;1.20;62.51;142566.02;1581525;90;21064;-63
2022/01/16 10:16:40;;;;;;;8.78;2.50;;;;;;;1.15;62.54;142553.58;1586421;89;21047;-63
2022/01/16 10:19:28;;;;;;;7.28;2.37;;;;;;;1.10;62.49;142541.12;1581415;91;21071;-63
2022/01/16 10:22:05;;;;;;;7.20;2.12;;;;;;;1.01;62.70;142521.19;1599895;90;21048;-63
2022/01/16 10:24:35;;;;;;;5.42;2.10;;;;;;;1.00;62.78;142518.72;1599697;89;21526;-63
2022/01/16 10:27:17;;;;;;;5.78;2.15;;;;;;;1.04;62.39;142528.69;1599964;89;21020;-63
2022/01/16 10:29:49;;;;;;;;;;;;;;;1.11;62.40;142544.84;1585405;89;21036;-62
2022/01/16 10:32:23;;;;;;;6.92;2.50;;;;;;;1.14;62.21;142552.30;1573857;90;20111;-63
2022/01/16 10:34:53;;;;;;;6.15;2.20;;;;;;;1.17;62.14;142558.52;1574620;90;21036;-63
2022/01/16 10:37:31;;;;;;;7.05;2.02;;;;;;;1.10;62.23;142541.12;1573636;91;21124;-65
2022/01/16 10:40:14;;;;;;;7.20;2.25;;;;;;;1.13;62.32;142548.59;1599792;89;21037;-63
2022/01/16 10:42:51;;;;;;;7.95;2.00;;;;;;;1.20;62.20;142567.25;1599575;89;21155;-62
2022/01/16 10:45:26;;;;;;;5.12;1.82;;;;;;;1.27;62.01;142583.41;1599997;89;21565;-62
2022/01/16 10:47:57;;;;;;;6.72;2.30;;;;;;;1.39;61.83;142613.28;1577362;90;21036;-63
2022/01/16 10:50:34;;;;;;;6.08;2.00;;;;;;;1.41;61.33;142618.25;1573808;90;21052;-63
2022/01/16 10:53:15;;;;;;;7.92;2.12;;;;;;;1.36;61.54;142604.58;1573563;90;21084;-62
2022/01/16 10:55:58;;;;;;;7.47;2.30;;;;;;;1.29;61.12;142589.62;1573838;90;21079;-62
2022/01/16 10:58:39;;;;;;;12.63;2.80;;;;;;;1.18;61.49;142561.03;1573552;90;21052;-63
2022/01/16 11:01:13;;;;;;;6.00;2.02;;;;;;;1.13;61.52;142549.81;1600019;89;21041;-62
2022/01/16 11:03:46;;;;;;;9.08;2.45;;;;;;;1.11;61.51;142543.59;1599922;89;21048;-63
2022/01/16 11:06:21;;;;;;;7.85;2.08;;;;;;;1.12;61.58;142546.08;1599729;90;21130;-62
2022/01/16 11:08:59;;;;;;;4.65;2.27;;;;;;;1.08;61.71;142537.38;1573557;91;21586;-62
2022/01/16 11:11:26;;;;;;;5.92;2.17;;;;;;;1.10;61.73;142541.12;1573730;91;21100;-63
2022/01/16 11:13:55;;;;;;;7.70;2.70;;;;;;;1.14;61.50;142551.06;1573796;90;21589;-62
2022/01/16 11:16:24;;;;;;;5.00;2.10;;;;;;;1.18;61.44;142561.03;1573770;90;21169;-63
2022/01/16 11:18:51;;;;;;;5.62;2.08;;;;;;;1.20;60.96;142567.25;1597031;89;21097;-63
2022/01/16 11:21:30;;;;;;;5.85;2.10;;;;;;;1.18;60.73;142561.03;1606313;88;21115;-63
2022/01/16 11:24:01;;;;;;;5.80;2.02;;;;;;;1.19;60.42;142564.73;1610031;87;21052;-63
2022/01/16 11:26:21;;;;;;;5.70;1.95;;;;;;;1.21;60.69;142569.72;1610000;87;21098;-62
2022/01/16 11:28:54;;;;;;;6.83;2.95;;;;;;;1.35;59.98;142603.34;1607950;88;21079;-63
2022/01/16 11:31:22;;;;;;;5.87;1.87;;;;;;;1.37;59.68;142608.28;1608259;89;21088;-63
2022/01/16 11:33:48;;;;;;;4.35;2.20;;;;;;;1.34;59.42;142600.83;1608325;88;21063;-63
2022/01/16 11:36:27;;;;;;;7.05;2.98;;;;;;;1.26;59.25;142582.16;1608159;89;21055;-62
2022/01/16 11:38:57;;;;;;;6.05;2.33;;;;;;;1.21;59.17;142568.48;1608152;88;21020;-63
2022/01/16 11:41:36;;;;;;;9.15;2.15;;;;;;;1.18;59.14;142562.27;1608040;88;21111;-63
2022/01/16 11:44:27;;;;;;;8.88;2.87;;;;;;;1.21;58.85;142568.48;1608211;88;21060;-63
2022/01/16 11:46:59;;;;;;;7.17;3.17;;;;;;;1.26;58.77;142580.92;1608402;88;21538;-63
2022/01/16 11:49:42;;;;;;;7.20;2.00;;;;;;;1.26;58.70;142580.92;1607361;89;21068;-62
2022/01/16 11:52:18;;;;;;;7.53;2.87;;;;;;;1.17;58.39;142558.52;1608130;88;21063;-62
2022/01/16 11:54:51;;;;;;;9.20;2.65;;;;;;;1.11;58.59;142543.59;1608288;89;21004;-63
2022/01/16 11:57:29;;;;;;;10.30;3.42;;;;;;;1.07;58.83;142536.16;1608009;88;21063;-63
2022/01/16 12:00:17;;;;;;;5.95;2.27;;;;;;;1.08;58.99;142537.38;1608239;88;21083;-62
2022/01/16 12:02:49;;;;;;;4.03;1.77;;;;;;;1.05;59.04;142531.16;1581546;89;21578;-63
2022/01/16 12:05:27;;;;;;;9.33;2.47;;;;;;;0.95;59.04;142505.05;1559741;92;21088;-64
2022/01/16 12:08:08;;;;;;;9.40;3.02;;;;;;;0.89;59.42;142491.38;1559723;92;21094;-64
2022/01/16 12:10:42;;;;;;;6.47;2.52;;;;;;;0.95;59.50;142506.28;1552708;91;21080;-63
2022/01/16 12:13:52;;;;;;;7.67;2.37;;;;;;;1.07;59.05;142536.16;1562868;92;21119;-63
2022/01/16 12:16:42;;;;;;;6.35;2.42;;;;;;;1.08;59.08;142538.62;1587711;89;21162;-63
2022/01/16 12:19:41;;;;;;;6.03;2.83;;;;;;;1.01;59.00;142521.19;1583064;90;21107;-64
2022/01/16 12:22:07;;;;;;;8.53;2.47;;;;;;;0.98;59.34;142513.73;1609162;88;21069;-63
2022/01/16 12:24:39;;;;;;;6.70;3.02;;;;;;;0.93;59.42;142501.30;1609541;89;21107;-64